Chicago, Illinois
Traffic Map
Current Weather Conditions
Chicago, Illinois
Overcast Thunderstorm
Overcast
42°
Feels Like: 38°
Wind Chill: 38° Ceiling: 400
Heat Index: 42° Visibility: 1.5mi
Dew Point: 39° Wind: 7mph
Humidity: 89% Direction: 20° (NNE)
Pressure: 29.49in Gusts: 0mph
Raw Report DataKMDW 241153Z 02006KT 1 1/2SM -TSRA BR OVC004CB 06/04 A2949 RMK AO2 RAB34 TSB34 SLP992 OCNL LTGIC OHD TS OHD MOV NE P0002 60006 70022 T00560039 10056 20050 56020
Traffic Incident Summary
Active as of:
Severity:
Category:
InformationThere was an issue retrieving the traffic information for this location. Please try a different location or try again shortly.
Advertisements
Track Severe Weather on mobile